createdAt,value
2023-01-17T00:00:15.091Z,17
2023-01-17T00:01:14.965Z,17
2023-01-17T00:02:14.449Z,18
2023-01-17T00:04:14.942Z,18
2023-01-17T00:05:14.679Z,18
2023-01-17T00:07:14.090Z,18
2023-01-17T00:08:14.438Z,18
2023-01-17T00:09:14.888Z,18
2023-01-17T00:10:14.141Z,18
2023-01-17T00:11:14.586Z,18
2023-01-17T00:12:14.109Z,18
2023-01-17T00:13:14.234Z,18
2023-01-17T00:14:14.942Z,18
2023-01-17T00:15:14.359Z,18
2023-01-17T00:16:15.479Z,18
2023-01-17T00:17:14.291Z,14
2023-01-17T00:18:14.599Z,14
2023-01-17T00:19:14.955Z,14
2023-01-17T00:20:14.452Z,14
2023-01-17T00:21:14.824Z,14
2023-01-17T00:22:14.331Z,14
2023-01-17T00:23:14.666Z,14
2023-01-17T00:24:14.505Z,14
2023-01-17T00:25:14.802Z,14
2023-01-17T00:26:14.386Z,14
2023-01-17T00:27:14.922Z,14
2023-01-17T00:28:14.157Z,14
2023-01-17T00:29:14.711Z,14
2023-01-17T00:30:14.547Z,14
2023-01-17T00:31:15.067Z,14
2023-01-17T00:32:14.464Z,12
2023-01-17T00:33:14.921Z,12
2023-01-17T00:34:14.117Z,12
2023-01-17T00:35:14.621Z,12
2023-01-17T00:36:15.064Z,12
2023-01-17T00:37:14.686Z,12
2023-01-17T00:38:14.267Z,12
2023-01-17T00:39:14.859Z,12
2023-01-17T00:40:14.112Z,12
2023-01-17T00:41:14.776Z,12
2023-01-17T00:42:15.006Z,12
2023-01-17T00:45:14.973Z,12
2023-01-17T00:46:14.311Z,12
2023-01-17T00:47:14.569Z,18
2023-01-17T00:48:14.650Z,18
2023-01-17T00:50:14.456Z,18
2023-01-17T00:51:14.719Z,18
2023-01-17T00:52:14.139Z,18
2023-01-17T00:53:14.942Z,18
2023-01-17T00:54:14.808Z,18
2023-01-17T00:55:15.072Z,18
2023-01-17T00:57:14.759Z,18
2023-01-17T00:58:14.142Z,18
2023-01-17T00:59:14.156Z,18
2023-01-17T01:00:14.818Z,18
2023-01-17T01:01:15.230Z,18
2023-01-17T01:02:14.991Z,9
2023-01-17T01:03:14.531Z,9
2023-01-17T01:04:14.864Z,9
2023-01-17T01:05:14.296Z,9
2023-01-17T01:06:14.780Z,9
2023-01-17T01:07:14.884Z,9
2023-01-17T01:08:14.308Z,9
2023-01-17T01:09:14.593Z,9
2023-01-17T01:10:14.099Z,9
2023-01-17T01:12:14.586Z,9
2023-01-17T01:13:14.966Z,9
2023-01-17T01:14:14.805Z,9
2023-01-17T01:16:14.641Z,9
2023-01-17T01:17:14.127Z,12
2023-01-17T01:18:14.431Z,12
2023-01-17T01:19:15.074Z,12
2023-01-17T01:21:14.736Z,12
2023-01-17T01:22:14.228Z,12
2023-01-17T01:24:14.569Z,12
2023-01-17T01:25:14.743Z,12
2023-01-17T01:26:14.136Z,12
2023-01-17T01:27:14.800Z,12
2023-01-17T01:29:14.138Z,12
2023-01-17T01:30:14.690Z,12
2023-01-17T01:31:14.166Z,12
2023-01-17T01:32:14.772Z,20
2023-01-17T01:33:14.188Z,20
2023-01-17T01:34:14.832Z,20
2023-01-17T01:36:14.637Z,20
2023-01-17T01:37:14.104Z,20
2023-01-17T01:38:14.673Z,20
2023-01-17T01:39:14.527Z,20
2023-01-17T01:40:14.420Z,20
2023-01-17T01:41:14.499Z,20
2023-01-17T01:42:14.539Z,20
2023-01-17T01:43:14.529Z,20
2023-01-17T01:45:15.044Z,20
2023-01-17T01:46:14.756Z,20
2023-01-17T01:48:15.002Z,18
2023-01-17T01:49:14.363Z,18
2023-01-17T01:50:14.874Z,18
2023-01-17T01:51:15.003Z,18
2023-01-17T01:52:14.413Z,18
2023-01-17T01:53:14.439Z,18
2023-01-17T01:54:14.606Z,18
2023-01-17T01:55:14.971Z,18
2023-01-17T01:56:14.090Z,18
2023-01-17T01:57:14.670Z,18
2023-01-17T01:58:14.686Z,18
2023-01-17T02:00:14.423Z,18
2023-01-17T02:01:15.482Z,18
2023-01-17T02:02:14.202Z,11
2023-01-17T02:03:14.281Z,11
2023-01-17T02:04:15.056Z,11
2023-01-17T02:05:17.004Z,11
2023-01-17T02:06:14.647Z,11
2023-01-17T02:07:14.395Z,11
2023-01-17T02:08:14.735Z,11
2023-01-17T02:09:14.508Z,11
2023-01-17T02:10:14.860Z,11
2023-01-17T02:11:14.261Z,11
2023-01-17T02:12:14.969Z,11
2023-01-17T02:13:14.463Z,11
2023-01-17T02:14:14.104Z,11
2023-01-17T02:15:14.246Z,11
2023-01-17T02:16:14.603Z,11
2023-01-17T02:17:15.092Z,18
2023-01-17T02:18:14.342Z,18
2023-01-17T02:19:14.525Z,18
2023-01-17T02:20:14.842Z,18
2023-01-17T02:21:14.227Z,18
2023-01-17T02:23:14.502Z,18
2023-01-17T02:24:14.897Z,18
2023-01-17T02:25:14.278Z,18
2023-01-17T02:26:14.195Z,18
2023-01-17T02:27:14.488Z,18
2023-01-17T02:28:14.133Z,18
2023-01-17T02:29:14.576Z,18
2023-01-17T02:30:14.646Z,18
2023-01-17T02:31:14.756Z,18
2023-01-17T02:33:14.667Z,17
2023-01-17T02:34:14.104Z,17
2023-01-17T02:35:14.761Z,17
2023-01-17T02:36:14.231Z,17
2023-01-17T02:38:14.605Z,17
2023-01-17T02:39:14.743Z,17
2023-01-17T02:40:14.957Z,17
2023-01-17T02:41:14.385Z,17
2023-01-17T02:42:14.767Z,17
2023-01-17T02:43:14.428Z,17
2023-01-17T02:44:14.536Z,17
2023-01-17T02:46:18.039Z,17
2023-01-17T02:47:14.252Z,11
2023-01-17T02:48:14.663Z,11
2023-01-17T02:49:14.493Z,11
2023-01-17T02:50:14.932Z,11
2023-01-17T02:51:14.717Z,11
2023-01-17T02:52:14.753Z,11
2023-01-17T02:53:14.215Z,11
2023-01-17T02:54:14.555Z,11
2023-01-17T02:55:14.981Z,11
2023-01-17T02:56:14.392Z,11
2023-01-17T02:57:14.744Z,11
2023-01-17T02:59:14.202Z,11
2023-01-17T03:00:14.441Z,11
2023-01-17T03:01:15.066Z,11
2023-01-17T03:02:15.774Z,8
2023-01-17T03:04:14.512Z,8
2023-01-17T03:05:14.974Z,8
2023-01-17T03:07:14.394Z,8
2023-01-17T03:08:14.791Z,8
2023-01-17T03:09:14.774Z,8
2023-01-17T03:10:14.425Z,8
2023-01-17T03:11:14.707Z,8
2023-01-17T03:12:14.099Z,8
2023-01-17T03:13:14.705Z,8
2023-01-17T03:14:14.243Z,8
2023-01-17T03:15:14.714Z,8
2023-01-17T03:17:14.538Z,4
2023-01-17T03:18:14.869Z,4
2023-01-17T03:19:14.236Z,4
2023-01-17T03:20:14.374Z,4
2023-01-17T03:21:14.365Z,4
2023-01-17T03:22:14.596Z,4
2023-01-17T03:23:14.122Z,4
2023-01-17T03:24:14.874Z,4
2023-01-17T03:25:14.418Z,4
2023-01-17T03:26:14.591Z,4
2023-01-17T03:27:14.557Z,4
2023-01-17T03:29:14.457Z,4
2023-01-17T03:30:14.088Z,4
2023-01-17T03:31:14.694Z,4
2023-01-17T03:33:14.811Z,6
2023-01-17T03:34:14.281Z,6
2023-01-17T03:35:14.791Z,6
2023-01-17T03:37:14.673Z,6
2023-01-17T03:38:14.955Z,6
2023-01-17T03:39:14.357Z,6
2023-01-17T03:40:14.845Z,6
2023-01-17T03:42:14.319Z,6
2023-01-17T03:43:14.557Z,6
2023-01-17T03:44:14.922Z,6
2023-01-17T03:45:15.055Z,6
2023-01-17T03:46:15.198Z,6
2023-01-17T03:47:14.297Z,7
2023-01-17T03:48:14.626Z,7
2023-01-17T03:49:14.991Z,7
2023-01-17T03:50:14.403Z,7
2023-01-17T03:51:14.404Z,7
2023-01-17T03:52:14.722Z,7
2023-01-17T03:53:14.219Z,7
2023-01-17T03:55:14.377Z,7
2023-01-17T03:56:14.321Z,7
2023-01-17T03:57:14.260Z,7
2023-01-17T03:58:14.475Z,7
2023-01-17T04:00:14.234Z,7
2023-01-17T04:01:16.099Z,7
2023-01-17T04:02:15.207Z,6
2023-01-17T04:04:14.642Z,6
2023-01-17T04:05:14.812Z,6
2023-01-17T04:06:14.528Z,6
2023-01-17T04:07:14.671Z,6
2023-01-17T04:08:14.837Z,6
2023-01-17T04:09:14.303Z,6
2023-01-17T04:10:14.580Z,6
2023-01-17T04:11:14.804Z,6
2023-01-17T04:12:14.416Z,6
2023-01-17T04:13:14.772Z,6
2023-01-17T04:14:14.620Z,6
2023-01-17T04:15:14.920Z,6
2023-01-17T04:17:15.221Z,3
2023-01-17T04:18:14.705Z,3
2023-01-17T04:19:14.116Z,3
2023-01-17T04:20:14.629Z,3
2023-01-17T04:21:14.819Z,3
2023-01-17T04:22:14.430Z,3
2023-01-17T04:23:14.669Z,3
2023-01-17T04:24:16.987Z,3
2023-01-17T04:25:14.964Z,3
2023-01-17T04:26:14.297Z,3
2023-01-17T04:27:14.175Z,3
2023-01-17T04:28:14.647Z,3
2023-01-17T04:29:14.775Z,3
2023-01-17T04:31:15.071Z,3
2023-01-17T04:32:14.722Z,0
2023-01-17T04:33:14.197Z,0
2023-01-17T04:34:14.527Z,0
2023-01-17T04:35:14.915Z,0
2023-01-17T04:36:14.264Z,0
2023-01-17T04:37:14.616Z,0
2023-01-17T04:39:14.195Z,0
2023-01-17T04:40:14.421Z,0
2023-01-17T04:41:14.803Z,0
2023-01-17T04:42:14.347Z,0
2023-01-17T04:44:14.542Z,0
2023-01-17T04:45:14.901Z,0
2023-01-17T04:46:14.585Z,0
2023-01-17T04:47:14.605Z,5
2023-01-17T04:49:14.634Z,5
2023-01-17T04:50:15.020Z,5
2023-01-17T04:51:14.496Z,5
2023-01-17T04:52:14.255Z,5
2023-01-17T04:53:14.260Z,5
2023-01-17T04:54:14.246Z,5
2023-01-17T04:55:14.544Z,5
2023-01-17T04:57:14.906Z,5
2023-01-17T04:58:14.228Z,5
2023-01-17T04:59:14.771Z,5
2023-01-17T05:00:14.287Z,5
2023-01-17T05:01:14.966Z,5
2023-01-17T05:02:14.871Z,6
2023-01-17T05:03:14.492Z,6
2023-01-17T05:04:14.656Z,6
2023-01-17T05:05:14.203Z,6
2023-01-17T05:06:14.407Z,6
2023-01-17T05:07:14.851Z,6
2023-01-17T05:08:14.235Z,6
2023-01-17T05:09:14.425Z,6
2023-01-17T05:11:14.980Z,6
2023-01-17T05:12:14.953Z,6
2023-01-17T05:13:14.195Z,6
2023-01-17T05:14:14.897Z,6
2023-01-17T05:15:14.291Z,6
2023-01-17T05:16:15.035Z,6
2023-01-17T05:17:14.111Z,1
2023-01-17T05:18:15.002Z,1
2023-01-17T05:19:14.952Z,1
2023-01-17T05:20:14.382Z,1
2023-01-17T05:21:14.889Z,1
2023-01-17T05:22:14.962Z,1
2023-01-17T05:23:14.782Z,1
2023-01-17T05:24:14.248Z,1
2023-01-17T05:25:14.627Z,1
2023-01-17T05:27:15.025Z,1
2023-01-17T05:28:14.244Z,1
2023-01-17T05:29:14.713Z,1
2023-01-17T05:30:14.753Z,1
2023-01-17T05:31:15.255Z,1
2023-01-17T05:33:14.251Z,1
2023-01-17T05:34:14.853Z,1
2023-01-17T05:35:14.136Z,1
2023-01-17T05:36:14.599Z,1
2023-01-17T05:37:14.865Z,1
2023-01-17T05:38:14.265Z,1
2023-01-17T05:39:14.922Z,1
2023-01-17T05:40:14.102Z,1
2023-01-17T05:41:14.771Z,1
2023-01-17T05:43:14.412Z,1
2023-01-17T05:44:14.862Z,1
2023-01-17T05:45:14.893Z,1
2023-01-17T05:46:14.880Z,1
2023-01-17T05:47:14.681Z,3
2023-01-17T05:48:14.205Z,3
2023-01-17T05:49:14.648Z,3
2023-01-17T05:50:14.835Z,3
2023-01-17T05:51:14.539Z,3
2023-01-17T05:52:14.259Z,3
2023-01-17T05:53:14.471Z,3
2023-01-17T05:54:14.865Z,3
2023-01-17T05:55:14.310Z,3
2023-01-17T05:56:14.758Z,3
2023-01-17T05:57:14.431Z,3
2023-01-17T05:58:14.404Z,3
2023-01-17T05:59:17.278Z,3
2023-01-17T06:00:14.727Z,3
2023-01-17T06:01:15.144Z,4
2023-01-17T06:02:14.259Z,4
2023-01-17T06:03:14.693Z,4
2023-01-17T06:04:14.513Z,4
2023-01-17T06:05:16.001Z,4
2023-01-17T06:06:14.353Z,4
2023-01-17T06:07:14.708Z,4
2023-01-17T06:08:14.727Z,4
2023-01-17T06:09:14.230Z,4
2023-01-17T06:10:14.145Z,4
2023-01-17T06:11:14.535Z,4
2023-01-17T06:12:14.589Z,4
2023-01-17T06:13:14.344Z,4
2023-01-17T06:14:14.844Z,4
2023-01-17T06:16:15.455Z,4
2023-01-17T06:17:14.974Z,3
2023-01-17T06:18:14.357Z,3
2023-01-17T06:19:14.689Z,3
2023-01-17T06:20:14.521Z,3
2023-01-17T06:21:14.595Z,3
2023-01-17T06:24:16.876Z,3
2023-01-17T06:26:14.481Z,3
2023-01-17T06:27:14.431Z,3
2023-01-17T06:28:14.867Z,3
2023-01-17T06:29:14.423Z,3
2023-01-17T06:30:14.419Z,3
2023-01-17T06:31:15.275Z,3
2023-01-17T06:32:14.377Z,3
2023-01-17T06:33:14.912Z,3
2023-01-17T06:35:14.457Z,3
2023-01-17T06:36:14.900Z,3
2023-01-17T06:37:14.246Z,3
2023-01-17T06:38:14.231Z,3
2023-01-17T06:39:15.389Z,3
2023-01-17T06:40:14.106Z,3
2023-01-17T06:41:14.897Z,3
2023-01-17T06:42:14.787Z,3
2023-01-17T06:43:14.330Z,3
2023-01-17T06:44:15.106Z,3
2023-01-17T06:45:14.224Z,3
2023-01-17T06:46:14.450Z,3
2023-01-17T06:47:14.558Z,0
2023-01-17T06:48:14.721Z,0
2023-01-17T06:49:14.837Z,0
2023-01-17T06:50:14.225Z,0
2023-01-17T06:51:14.463Z,0
2023-01-17T06:52:14.773Z,0
2023-01-17T06:53:14.250Z,0
2023-01-17T06:54:14.786Z,0
2023-01-17T06:55:14.166Z,0
2023-01-17T06:56:14.354Z,0
2023-01-17T06:57:14.557Z,0
2023-01-17T06:58:14.144Z,0
2023-01-17T06:59:14.336Z,0
2023-01-17T07:00:15.007Z,0
2023-01-17T07:02:14.554Z,0
2023-01-17T07:04:14.565Z,0
2023-01-17T07:05:14.741Z,0
2023-01-17T07:06:14.441Z,0
2023-01-17T07:07:14.214Z,0
2023-01-17T07:08:14.372Z,0
2023-01-17T07:09:14.874Z,0
2023-01-17T07:10:14.324Z,0
2023-01-17T07:11:14.550Z,0
2023-01-17T07:12:14.838Z,0
2023-01-17T07:13:14.407Z,0
2023-01-17T07:14:14.546Z,0
2023-01-17T07:15:14.789Z,0
2023-01-17T07:16:14.438Z,0
2023-01-17T07:17:14.740Z,1
2023-01-17T07:18:14.237Z,1
2023-01-17T07:19:14.503Z,1
2023-01-17T07:20:14.948Z,1
2023-01-17T07:21:14.167Z,1
2023-01-17T07:22:14.755Z,1
2023-01-17T07:23:14.710Z,1
2023-01-17T07:24:14.385Z,1
2023-01-17T07:25:14.771Z,1
2023-01-17T07:26:14.326Z,1
2023-01-17T07:27:14.812Z,1
2023-01-17T07:28:14.567Z,1
2023-01-17T07:29:14.775Z,1
2023-01-17T07:30:14.749Z,1
2023-01-17T07:32:14.718Z,1
2023-01-17T07:33:14.916Z,1
2023-01-17T07:34:14.197Z,1
2023-01-17T07:35:14.586Z,1
2023-01-17T07:36:14.923Z,1
2023-01-17T07:37:15.274Z,1
2023-01-17T07:38:14.398Z,1
2023-01-17T07:40:14.091Z,1
2023-01-17T07:42:14.479Z,1
2023-01-17T07:44:14.609Z,1
2023-01-17T07:45:14.837Z,1
2023-01-17T07:46:14.921Z,1
2023-01-17T07:47:14.539Z,0
2023-01-17T07:48:15.049Z,0
2023-01-17T07:49:14.759Z,0
2023-01-17T07:50:14.221Z,0
2023-01-17T07:51:14.741Z,0
2023-01-17T07:53:14.406Z,0
2023-01-17T07:54:14.516Z,0
2023-01-17T07:55:14.463Z,0
2023-01-17T07:56:14.913Z,0
2023-01-17T07:57:14.150Z,0
2023-01-17T07:58:15.722Z,0
2023-01-17T07:59:14.931Z,0
2023-01-17T08:00:14.305Z,0
2023-01-17T08:01:15.201Z,1
2023-01-17T08:02:14.974Z,1
2023-01-17T08:03:14.122Z,1
2023-01-17T08:04:14.842Z,1
2023-01-17T08:05:14.694Z,1
2023-01-17T08:06:14.966Z,1
2023-01-17T08:07:14.265Z,1
2023-01-17T08:08:15.960Z,1
2023-01-17T08:10:14.571Z,1
2023-01-17T08:11:14.876Z,1
2023-01-17T08:13:14.493Z,1
2023-01-17T08:14:14.985Z,1
2023-01-17T08:15:14.615Z,1
2023-01-17T08:16:14.464Z,1
2023-01-17T08:17:14.441Z,0
2023-01-17T08:18:14.390Z,0
2023-01-17T08:19:14.851Z,0
2023-01-17T08:20:14.604Z,0
2023-01-17T08:21:14.445Z,0
2023-01-17T08:22:14.372Z,0
2023-01-17T08:23:14.609Z,0
2023-01-17T08:24:14.992Z,0
2023-01-17T08:25:14.180Z,0
2023-01-17T08:26:14.651Z,0
2023-01-17T08:28:15.057Z,0
2023-01-17T08:29:14.487Z,0
2023-01-17T08:30:14.902Z,0
2023-01-17T08:31:14.979Z,0
2023-01-17T08:32:14.209Z,4
2023-01-17T08:33:14.454Z,4
2023-01-17T08:34:14.791Z,4
2023-01-17T08:35:14.086Z,4
2023-01-17T08:37:14.507Z,4
2023-01-17T08:39:14.480Z,4
2023-01-17T08:40:14.338Z,4
2023-01-17T08:41:14.839Z,4
2023-01-17T08:42:14.136Z,4
2023-01-17T08:43:14.569Z,4
2023-01-17T08:45:14.381Z,4
2023-01-17T08:46:14.969Z,4
2023-01-17T08:48:14.456Z,0
2023-01-17T08:49:14.815Z,0
2023-01-17T08:50:14.428Z,0
2023-01-17T08:51:14.694Z,0
2023-01-17T08:53:14.912Z,0
2023-01-17T08:54:14.232Z,0
2023-01-17T08:55:14.608Z,0
2023-01-17T08:56:14.241Z,0
2023-01-17T08:57:14.445Z,0
2023-01-17T08:58:14.906Z,0
2023-01-17T09:00:14.680Z,0
2023-01-17T09:01:15.680Z,0
2023-01-17T09:02:15.059Z,6
2023-01-17T09:03:16.412Z,6
2023-01-17T09:04:14.531Z,6
2023-01-17T09:05:14.247Z,6
2023-01-17T09:06:14.659Z,6
2023-01-17T09:07:14.182Z,6
2023-01-17T09:08:14.295Z,6
2023-01-17T09:09:14.529Z,6
2023-01-17T09:10:15.005Z,6
2023-01-17T09:11:14.290Z,6
2023-01-17T09:12:14.293Z,6
2023-01-17T09:13:14.726Z,6
2023-01-17T09:14:14.127Z,6
2023-01-17T09:15:14.512Z,6
2023-01-17T09:16:14.258Z,6
2023-01-17T09:18:14.684Z,5
2023-01-17T09:19:14.260Z,5
2023-01-17T09:20:14.161Z,5
2023-01-17T09:21:14.321Z,5
2023-01-17T09:22:14.956Z,5
2023-01-17T09:23:14.171Z,5
2023-01-17T09:24:14.841Z,5
2023-01-17T09:26:14.330Z,5
2023-01-17T09:27:14.716Z,5
2023-01-17T09:28:14.403Z,5
2023-01-17T09:29:14.591Z,5
2023-01-17T09:30:14.245Z,5
2023-01-17T09:31:17.340Z,5
2023-01-17T09:32:14.337Z,6
2023-01-17T09:33:14.488Z,6
2023-01-17T09:34:14.860Z,6
2023-01-17T09:35:14.218Z,6
2023-01-17T09:36:14.234Z,6
2023-01-17T09:37:14.655Z,6
2023-01-17T09:38:14.107Z,6
2023-01-17T09:39:14.077Z,6
2023-01-17T09:40:14.697Z,6
2023-01-17T09:42:14.440Z,6
2023-01-17T09:43:15.002Z,6
2023-01-17T09:44:14.687Z,6
2023-01-17T09:45:14.093Z,6
2023-01-17T09:46:14.393Z,6
2023-01-17T09:47:14.755Z,1
2023-01-17T09:48:14.887Z,1
2023-01-17T09:49:14.222Z,1
2023-01-17T09:50:14.511Z,1
2023-01-17T09:52:15.028Z,1
2023-01-17T09:53:14.209Z,1
2023-01-17T09:54:14.548Z,1
2023-01-17T09:56:14.448Z,1
2023-01-17T09:57:14.327Z,1
2023-01-17T09:58:14.649Z,1
2023-01-17T09:59:15.461Z,1
2023-01-17T10:01:15.687Z,1
2023-01-17T10:02:15.263Z,3
2023-01-17T10:03:15.394Z,3
2023-01-17T10:04:14.730Z,3
2023-01-17T10:05:15.241Z,3
2023-01-17T10:06:14.336Z,3
2023-01-17T10:07:14.575Z,3
2023-01-17T10:08:17.089Z,3
2023-01-17T10:09:14.348Z,3
2023-01-17T10:10:14.678Z,3
2023-01-17T10:11:14.434Z,3
2023-01-17T10:12:14.822Z,3
2023-01-17T10:13:14.854Z,3
2023-01-17T10:14:14.295Z,3
2023-01-17T10:15:14.879Z,3
2023-01-17T10:16:14.747Z,3
2023-01-17T10:17:14.237Z,5
2023-01-17T10:18:32.910Z,5
2023-01-17T10:20:14.432Z,5
2023-01-17T10:21:14.745Z,5
2023-01-17T10:22:14.367Z,5
2023-01-17T10:23:14.504Z,5
2023-01-17T10:24:15.161Z,5
2023-01-17T10:25:14.287Z,5
2023-01-17T10:26:14.846Z,5
2023-01-17T10:27:14.260Z,5
2023-01-17T10:28:14.541Z,5
2023-01-17T10:29:14.629Z,5
2023-01-17T10:30:14.886Z,5
2023-01-17T10:31:14.795Z,5
2023-01-17T10:32:14.721Z,0
2023-01-17T10:33:14.101Z,0
2023-01-17T10:34:14.329Z,0
2023-01-17T10:35:14.978Z,0
2023-01-17T10:36:14.869Z,0
2023-01-17T10:37:14.214Z,0
2023-01-17T10:38:14.813Z,0
2023-01-17T10:39:14.228Z,0
2023-01-17T10:40:14.433Z,0
2023-01-17T10:41:14.866Z,0
2023-01-17T10:42:14.365Z,0
2023-01-17T10:43:14.387Z,0
2023-01-17T10:44:14.428Z,0
2023-01-17T10:45:14.597Z,0
2023-01-17T10:46:14.442Z,0
2023-01-17T10:47:14.655Z,4
2023-01-17T10:48:14.499Z,4
2023-01-17T10:49:14.681Z,4
2023-01-17T10:50:14.133Z,4
2023-01-17T10:51:14.684Z,4
2023-01-17T10:52:14.985Z,4
2023-01-17T10:53:14.281Z,4
2023-01-17T10:54:14.669Z,4
2023-01-17T10:55:14.927Z,4
2023-01-17T10:56:14.371Z,4
2023-01-17T10:57:14.648Z,4
2023-01-17T10:58:14.179Z,4
2023-01-17T10:59:14.738Z,4
2023-01-17T11:00:14.486Z,4
2023-01-17T11:01:15.703Z,4
2023-01-17T11:02:14.971Z,4
2023-01-17T11:03:14.950Z,4
2023-01-17T11:04:14.099Z,4
2023-01-17T11:05:14.144Z,4
2023-01-17T11:06:14.782Z,4
2023-01-17T11:07:14.666Z,4
2023-01-17T11:09:14.402Z,4
2023-01-17T11:10:14.725Z,4
2023-01-17T11:11:14.108Z,4
2023-01-17T11:12:14.502Z,4
2023-01-17T11:13:14.597Z,4
2023-01-17T11:14:14.138Z,4
2023-01-17T11:15:14.138Z,4
2023-01-17T11:16:15.411Z,4
2023-01-17T11:17:14.096Z,1
2023-01-17T11:18:14.385Z,1
2023-01-17T11:19:14.691Z,1
2023-01-17T11:20:14.217Z,1
2023-01-17T11:21:14.643Z,1
2023-01-17T11:22:14.979Z,1
2023-01-17T11:23:14.360Z,1
2023-01-17T11:24:14.971Z,1
2023-01-17T11:25:14.094Z,1
2023-01-17T11:26:14.595Z,1
2023-01-17T11:27:14.906Z,1
2023-01-17T11:28:14.505Z,1
2023-01-17T11:29:14.575Z,1
2023-01-17T11:31:14.966Z,1
2023-01-17T11:32:14.777Z,7
2023-01-17T11:33:14.148Z,7
2023-01-17T11:34:14.343Z,7
2023-01-17T11:35:14.953Z,7
2023-01-17T11:36:14.381Z,7
2023-01-17T11:37:14.488Z,7
2023-01-17T11:38:14.407Z,7
2023-01-17T11:39:14.614Z,7
2023-01-17T11:40:14.986Z,7
2023-01-17T11:41:14.483Z,7
2023-01-17T11:42:14.847Z,7
2023-01-17T11:43:14.317Z,7
2023-01-17T11:44:14.472Z,7
2023-01-17T11:45:14.799Z,7
2023-01-17T11:46:15.137Z,7
2023-01-17T11:47:14.731Z,6
2023-01-17T11:49:14.193Z,6
2023-01-17T11:50:14.454Z,6
2023-01-17T11:52:14.130Z,6
2023-01-17T11:53:14.619Z,6
2023-01-17T11:54:15.011Z,6
2023-01-17T11:55:14.189Z,6
2023-01-17T11:56:15.106Z,6
2023-01-17T11:57:14.337Z,6
2023-01-17T11:58:14.673Z,6
2023-01-17T12:00:15.058Z,6
2023-01-17T12:01:14.655Z,6
2023-01-17T12:02:14.437Z,8
2023-01-17T12:03:14.006Z,8
2023-01-17T12:04:15.112Z,8
2023-01-17T12:06:13.809Z,8
2023-01-17T12:07:14.090Z,8
2023-01-17T12:18:14.567Z,4
2023-01-17T12:19:14.030Z,4
2023-01-17T12:23:14.196Z,4
2023-01-17T12:26:14.172Z,4
2023-01-17T12:36:14.147Z,3
2023-01-17T12:38:37.194Z,3
2023-01-17T12:39:14.338Z,3
2023-01-17T12:41:14.216Z,3
2023-01-17T12:43:14.069Z,3
2023-01-17T12:48:14.812Z,7
2023-01-17T12:49:14.072Z,7
2023-01-17T12:54:14.145Z,7
2023-01-17T12:55:13.788Z,7
2023-01-17T12:56:14.174Z,7
2023-01-17T12:59:14.070Z,7
2023-01-17T13:04:14.142Z,5
2023-01-17T13:05:14.090Z,5
2023-01-17T13:07:14.163Z,5
2023-01-17T13:12:13.794Z,5
2023-01-17T13:18:14.102Z,4
2023-01-17T13:21:14.092Z,4
2023-01-17T13:24:14.807Z,4
2023-01-17T13:28:14.156Z,4
2023-01-17T13:32:14.217Z,7
2023-01-17T13:49:14.025Z,7
2023-01-17T13:57:14.171Z,7
2023-01-17T14:02:14.831Z,9
2023-01-17T14:05:13.402Z,9
2023-01-17T14:06:14.124Z,9
2023-01-17T14:09:14.114Z,9
2023-01-17T14:11:16.209Z,9
2023-01-17T14:12:14.694Z,9
2023-01-17T14:21:13.933Z,9
2023-01-17T14:23:13.857Z,9
2023-01-17T14:33:13.732Z,9
2023-01-17T14:45:14.088Z,9
2023-01-17T14:46:14.087Z,9
2023-01-17T14:49:14.163Z,5
2023-01-17T14:54:14.182Z,5
2023-01-17T14:59:14.204Z,5
2023-01-17T15:07:14.142Z,5
2023-01-17T15:08:13.443Z,5
2023-01-17T15:11:13.514Z,5
2023-01-17T15:15:14.183Z,5
2023-01-17T15:18:14.048Z,5
2023-01-17T15:20:14.146Z,5
2023-01-17T15:23:14.032Z,5
2023-01-17T15:29:14.194Z,5
2023-01-17T15:31:14.199Z,5
2023-01-17T15:32:14.209Z,5
2023-01-17T15:34:14.211Z,5
2023-01-17T15:41:14.126Z,5
2023-01-17T15:44:14.400Z,5
2023-01-17T15:47:14.028Z,5
2023-01-17T15:50:14.050Z,5
2023-01-17T15:53:14.118Z,5
2023-01-17T15:58:14.104Z,5
2023-01-17T15:59:14.241Z,5
2023-01-17T16:00:14.977Z,5
2023-01-17T16:09:14.014Z,7
2023-01-17T16:12:14.215Z,7
2023-01-17T16:14:13.934Z,7
2023-01-17T16:15:27.453Z,7
2023-01-17T16:23:14.106Z,4
2023-01-17T16:26:14.154Z,4
2023-01-17T16:28:14.152Z,4
2023-01-17T16:31:14.850Z,4
2023-01-17T16:36:14.046Z,7
2023-01-17T16:41:13.867Z,7
2023-01-17T16:44:14.205Z,7
2023-01-17T16:47:13.763Z,3
2023-01-17T16:48:14.790Z,3
2023-01-17T16:49:13.894Z,3
2023-01-17T16:54:14.052Z,3
2023-01-17T16:56:14.074Z,3
2023-01-17T17:02:15.295Z,1
2023-01-17T17:06:14.151Z,1
2023-01-17T17:07:14.799Z,1
2023-01-17T17:12:14.078Z,1
2023-01-17T17:13:15.467Z,1
2023-01-17T17:18:14.660Z,0
2023-01-17T17:26:14.157Z,0
2023-01-17T17:29:14.067Z,0
2023-01-17T17:30:14.769Z,0
2023-01-17T17:34:14.815Z,0
2023-01-17T17:35:14.156Z,0
2023-01-17T17:38:14.143Z,0
2023-01-17T17:49:14.092Z,0
2023-01-17T17:52:14.078Z,0
2023-01-17T17:54:14.094Z,0
2023-01-17T17:55:13.828Z,0
2023-01-17T17:58:13.970Z,0
2023-01-17T17:59:14.138Z,0
2023-01-17T18:00:14.690Z,0
2023-01-17T18:06:14.092Z,3
2023-01-17T18:10:14.144Z,3
2023-01-17T18:17:14.697Z,0
2023-01-17T18:18:14.461Z,0
2023-01-17T18:25:14.076Z,0
2023-01-17T18:28:14.604Z,0
2023-01-17T18:29:14.414Z,0
2023-01-17T18:32:13.959Z,0
2023-01-17T18:44:14.022Z,0
2023-01-17T18:47:14.054Z,0
2023-01-17T18:51:14.512Z,0
2023-01-17T18:52:14.880Z,0
2023-01-17T18:55:14.146Z,0
2023-01-17T19:08:13.969Z,1
2023-01-17T19:18:13.086Z,1
2023-01-17T19:39:17.827Z,0
2023-01-17T19:40:14.302Z,0
2023-01-17T19:47:13.883Z,0
2023-01-17T19:48:14.135Z,0
2023-01-17T19:50:13.991Z,0
2023-01-17T19:51:14.433Z,0
2023-01-17T19:53:14.120Z,0
2023-01-17T19:56:13.995Z,0
2023-01-17T20:03:14.891Z,7
2023-01-17T20:04:14.558Z,7
2023-01-17T20:06:13.974Z,7
2023-01-17T20:08:14.153Z,7
2023-01-17T20:10:14.841Z,7
2023-01-17T20:11:14.165Z,7
2023-01-17T20:16:14.731Z,7
2023-01-17T20:18:13.922Z,7
2023-01-17T20:19:14.214Z,7
2023-01-17T20:24:14.081Z,7
2023-01-17T20:28:13.732Z,7
2023-01-17T20:29:14.067Z,7
2023-01-17T20:30:31.302Z,7
2023-01-17T20:35:13.999Z,5
2023-01-17T20:36:23.037Z,5
2023-01-17T20:37:14.088Z,5
2023-01-17T20:48:13.986Z,4
2023-01-17T20:50:14.606Z,4
2023-01-17T20:51:14.121Z,4
2023-01-17T20:55:14.559Z,4
2023-01-17T21:12:14.135Z,0
2023-01-17T21:14:14.078Z,0
2023-01-17T21:21:14.167Z,0
2023-01-17T21:25:14.663Z,0
2023-01-17T21:27:14.178Z,0
2023-01-17T21:30:14.010Z,0
2023-01-17T21:36:14.173Z,5
2023-01-17T21:39:14.232Z,5
2023-01-17T21:43:14.130Z,5
2023-01-17T21:50:33.217Z,3
2023-01-17T21:55:14.097Z,3
2023-01-17T21:58:14.151Z,3
2023-01-17T22:00:14.108Z,3
2023-01-17T22:02:14.561Z,0
2023-01-17T22:05:13.958Z,0
2023-01-17T22:06:14.091Z,0
2023-01-17T22:11:13.666Z,0
2023-01-17T22:18:14.013Z,0
2023-01-17T22:23:13.915Z,0
2023-01-17T22:24:14.530Z,0
2023-01-17T22:25:15.022Z,0
2023-01-17T22:28:14.097Z,0
2023-01-17T22:31:15.206Z,0
2023-01-17T22:32:14.163Z,0
2023-01-17T22:45:14.135Z,0
2023-01-17T22:55:14.568Z,0
2023-01-17T22:59:14.077Z,0
2023-01-17T23:01:14.502Z,0
2023-01-17T23:03:15.052Z,0
2023-01-17T23:07:13.915Z,0
2023-01-17T23:12:13.966Z,0
2023-01-17T23:14:14.988Z,0
2023-01-17T23:19:14.141Z,0
2023-01-17T23:21:14.101Z,0
2023-01-17T23:23:14.810Z,0
2023-01-17T23:24:14.164Z,0
2023-01-17T23:29:13.915Z,0
2023-01-17T23:32:14.096Z,3
2023-01-17T23:34:14.755Z,3
2023-01-17T23:35:14.161Z,3
2023-01-17T23:37:14.148Z,3
2023-01-17T23:46:14.916Z,3
2023-01-17T23:47:14.114Z,3
2023-01-17T23:49:14.146Z,3
2023-01-17T23:51:14.151Z,3
2023-01-17T23:56:14.052Z,3
2023-01-17T23:59:14.160Z,3
